This is the latest recevied weather packets stored in our database for station/object IW1QQG-13. If no packets are shown the sender has not sent any weather packets the latest 10 day(s).
| Time | Temp. | Humidity | Pressure | Rain* | Wind** | Luminosity | Snow |
|---|---|---|---|---|---|---|---|
| 1777582224 | 16.11° C | 55% | 1020.7 hPa | 0 mm | - | 0 W/m² | - |
| 1777581622 | 16.67° C | 54% | 1020.7 hPa | 0 mm | - | 0 W/m² | - |
| 1777581022 | 16.11° C | 54% | 1020.7 hPa | 0 mm | - | 0 W/m² | - |
| 1777580422 | 16.11° C | 54% | 1020.7 hPa | 0 mm | - | 0 W/m² | - |
| 1777579822 | 16.67° C | 51% | 1020.7 hPa | 0 mm | - | 0 W/m² | - |
| 1777579222 | 16.67° C | 51% | 1020.7 hPa | 0 mm | - | 0 W/m² | - |
| 1777578622 | 16.67° C | 50% | 1020.7 hPa | 0 mm | - | 0 W/m² | - |
| 1777578022 | 16.67° C | 49% | 1020.7 hPa | 0 mm | - | 0 W/m² | - |
| 1777577422 | 16.67° C | 50% | 1020.3 hPa | 0 mm | - | 0 W/m² | - |
| 1777576822 | 16.67° C | 49% | 1020.3 hPa | 0 mm | - | 0 W/m² | - |
| 1777576222 | 16.11° C | 53% | 1020.3 hPa | 0 mm | - | 0 W/m² | - |
| 1777575622 | 16.11° C | 51% | 1020.3 hPa | 0 mm | - | 0 W/m² | - |
| 1777575022 | 16.11° C | 55% | 1020.3 hPa | 0 mm | - | 0 W/m² | - |
| 1777574422 | 16.67° C | 53% | 1020 hPa | 0 mm | - | 1 W/m² | - |
| 1777573822 | 17.22° C | 51% | 1020 hPa | 0 mm | - | 3 W/m² | - |
| 1777573221 | 17.78° C | 49% | 1020 hPa | 0 mm | - | 7 W/m² | - |
| 1777572622 | 18.33° C | 46% | 1020 hPa | 0 mm | - | 13 W/m² | - |
| 1777572021 | 18.89° C | 44% | 1020 hPa | 0 mm | - | 19 W/m² | - |
| 1777571422 | 18.89° C | 42% | 1020 hPa | 0 mm | - | 24 W/m² | - |
| 1777570822 | 19.44° C | 42% | 1019.6 hPa | 0 mm | - | 33 W/m² | - |
| 1777570221 | 19.44° C | 41% | 1019.6 hPa | 0 mm | - | 43 W/m² | - |
| 1777569621 | 19.44° C | 40% | 1019.6 hPa | 0 mm | - | 49 W/m² | - |
| 1777569021 | 19.44° C | 41% | 1019.6 hPa | 0 mm | - | 62 W/m² | - |
| 1777568422 | 20° C | 42% | 1019.6 hPa | 0 mm | - | 69 W/m² | - |
| 1777567821 | 20° C | 41% | 1019.6 hPa | 0 mm | - | 74 W/m² | - |
* Rain latest hour (hover to see other rain measurements)
** Current wind speed in m/s (hover to see current wind gust speed)